createdAt,value
2019-03-15T00:01:42.944Z,6.20
2019-03-15T00:04:11.594Z,6.30
2019-03-15T00:06:40.045Z,6.30
2019-03-15T00:09:09.403Z,6.20
2019-03-15T00:11:38.025Z,6.30
2019-03-15T00:14:06.806Z,6.30
2019-03-15T00:16:36.863Z,6.20
2019-03-15T00:19:05.675Z,6.30
2019-03-15T00:21:34.199Z,6.20
2019-03-15T00:24:02.809Z,6.30
2019-03-15T00:26:31.610Z,6.30
2019-03-15T00:29:00.211Z,6.50
2019-03-15T00:31:28.723Z,6.40
2019-03-15T00:33:57.203Z,6.40
2019-03-15T00:36:25.657Z,6.40
2019-03-15T00:38:54.185Z,6.50
2019-03-15T00:41:22.686Z,6.50
2019-03-15T00:43:51.210Z,6.40
2019-03-15T00:46:19.730Z,6.40
2019-03-15T00:48:48.268Z,6.40
2019-03-15T00:51:16.722Z,6.50
2019-03-15T00:53:45.162Z,6.60
2019-03-15T00:56:13.636Z,6.60
2019-03-15T00:58:42.097Z,6.60
2019-03-15T01:01:10.758Z,6.50
2019-03-15T01:03:39.316Z,6.50
2019-03-15T01:06:07.851Z,6.60
2019-03-15T01:08:36.367Z,6.60
2019-03-15T01:11:05.043Z,6.60
2019-03-15T01:13:33.487Z,6.70
2019-03-15T01:16:01.941Z,6.70
2019-03-15T01:18:30.621Z,6.80
2019-03-15T01:20:59.071Z,6.70
2019-03-15T01:23:27.517Z,6.60
2019-03-15T01:25:56.009Z,6.70
2019-03-15T01:28:24.501Z,6.60
2019-03-15T01:30:53.222Z,6.60
2019-03-15T01:33:21.808Z,6.60
2019-03-15T01:35:50.318Z,6.60
2019-03-15T01:38:18.830Z,6.50
2019-03-15T01:40:48.824Z,6.60
2019-03-15T01:43:17.528Z,6.50
2019-03-15T01:45:46.056Z,6.50
2019-03-15T01:48:14.516Z,6.40
2019-03-15T01:50:42.959Z,6.40
2019-03-15T01:53:12.378Z,6.30
2019-03-15T01:55:41.630Z,6.30
2019-03-15T01:58:10.150Z,6.20
2019-03-15T02:00:38.812Z,6.20
2019-03-15T02:03:07.622Z,6.20
2019-03-15T02:05:36.071Z,6.20
2019-03-15T02:08:04.650Z,6.20
2019-03-15T02:10:33.211Z,6.20
2019-03-15T02:13:01.860Z,6.20
2019-03-15T02:15:30.380Z,6.20
2019-03-15T02:17:58.848Z,6.20
2019-03-15T02:20:27.404Z,6.30
2019-03-15T02:22:56.066Z,6.30
2019-03-15T02:25:24.571Z,6.30
2019-03-15T02:27:53.014Z,6.30
2019-03-15T02:30:21.531Z,6.30
2019-03-15T02:32:50.113Z,6.30
2019-03-15T02:35:19.981Z,6.30
2019-03-15T02:37:48.763Z,6.40
2019-03-15T02:40:17.372Z,6.40
2019-03-15T02:42:45.964Z,6.30
2019-03-15T02:45:14.664Z,6.30
2019-03-15T02:47:43.217Z,6.30
2019-03-15T02:50:11.719Z,6.20
2019-03-15T02:52:42.863Z,6.30
2019-03-15T02:55:11.540Z,6.30
2019-03-15T02:57:39.986Z,6.40
2019-03-15T03:00:09.468Z,6.40
2019-03-15T03:02:37.938Z,6.50
2019-03-15T03:07:36.735Z,6.50
2019-03-15T03:10:07.524Z,6.50
2019-03-15T03:12:35.978Z,6.60
2019-03-15T03:15:06.244Z,6.60
2019-03-15T03:17:35.171Z,6.60
2019-03-15T03:20:05.070Z,6.60
2019-03-15T03:22:33.621Z,6.60
2019-03-15T03:25:02.192Z,6.70
2019-03-15T03:27:30.765Z,6.70
2019-03-15T03:29:59.243Z,6.70
2019-03-15T03:32:27.740Z,6.70
2019-03-15T03:34:56.264Z,6.70
2019-03-15T03:37:24.797Z,6.80
2019-03-15T03:39:53.381Z,6.70
2019-03-15T03:42:21.883Z,6.70
2019-03-15T03:44:50.327Z,6.70
2019-03-15T03:47:18.967Z,6.70
2019-03-15T03:49:47.566Z,6.70
2019-03-15T03:52:16.098Z,6.60
2019-03-15T03:54:44.585Z,6.70
2019-03-15T03:57:13.199Z,6.70
2019-03-15T03:59:41.768Z,6.60
2019-03-15T04:02:10.747Z,6.70
2019-03-15T04:04:39.627Z,6.70
2019-03-15T04:07:08.310Z,6.80
2019-03-15T04:12:13.743Z,6.70
2019-03-15T04:14:42.224Z,6.70
2019-03-15T04:17:10.815Z,6.70
2019-03-15T04:19:39.327Z,6.80
2019-03-15T04:22:07.888Z,6.80
2019-03-15T04:24:36.419Z,6.70
2019-03-15T04:27:05.011Z,6.60
2019-03-15T04:29:33.686Z,6.60
2019-03-15T04:32:02.135Z,6.60
2019-03-15T04:34:30.653Z,6.70
2019-03-15T04:36:59.275Z,6.70
2019-03-15T04:39:27.727Z,6.70
2019-03-15T04:41:56.266Z,6.80
2019-03-15T04:44:24.815Z,6.70
2019-03-15T04:46:53.341Z,6.70
2019-03-15T04:49:21.783Z,6.70
2019-03-15T04:51:50.259Z,6.60
2019-03-15T04:54:18.717Z,6.60
2019-03-15T04:56:47.161Z,6.60
2019-03-15T04:59:15.635Z,6.70
2019-03-15T05:01:44.088Z,6.70
2019-03-15T05:04:12.531Z,6.70
2019-03-15T05:06:41.428Z,6.70
2019-03-15T05:09:09.942Z,6.70
2019-03-15T05:11:38.396Z,6.80
2019-03-15T05:14:07.000Z,6.70
2019-03-15T05:16:35.469Z,6.80
2019-03-15T05:19:03.924Z,6.80
2019-03-15T05:21:32.894Z,6.80
2019-03-15T05:26:29.491Z,6.80
2019-03-15T05:28:58.278Z,6.80
2019-03-15T05:31:26.739Z,6.80
2019-03-15T05:33:55.251Z,6.80
2019-03-15T05:36:23.731Z,6.80
2019-03-15T05:38:52.191Z,6.80
2019-03-15T05:41:20.660Z,6.60
2019-03-15T05:43:49.131Z,6.90
2019-03-15T05:46:17.623Z,6.90
2019-03-15T05:48:46.082Z,6.90
2019-03-15T05:51:14.552Z,6.80
2019-03-15T05:53:43.003Z,6.70
2019-03-15T05:56:11.453Z,6.70
2019-03-15T05:58:39.931Z,6.80
2019-03-15T06:01:08.383Z,6.70
2019-03-15T06:03:47.774Z,6.70
2019-03-15T06:06:07.117Z,6.70
2019-03-15T06:08:35.634Z,6.70
2019-03-15T06:11:04.091Z,6.80
2019-03-15T06:13:32.571Z,6.80
2019-03-15T06:16:01.027Z,6.80
2019-03-15T06:18:29.470Z,6.80
2019-03-15T06:20:58.295Z,6.70
2019-03-15T06:23:26.755Z,6.70
2019-03-15T06:25:55.211Z,6.70
2019-03-15T06:28:23.707Z,6.60
2019-03-15T06:30:52.163Z,6.70
2019-03-15T06:33:20.616Z,6.70
2019-03-15T06:35:49.262Z,6.60
2019-03-15T06:38:17.711Z,6.70
2019-03-15T06:40:46.187Z,6.70
2019-03-15T06:43:14.671Z,6.70
2019-03-15T06:45:43.123Z,6.70
2019-03-15T06:48:11.576Z,6.70
2019-03-15T06:50:40.054Z,6.70
2019-03-15T06:53:08.500Z,6.70
2019-03-15T06:55:37.020Z,6.70
2019-03-15T06:58:05.723Z,6.70
2019-03-15T07:00:34.180Z,6.60
2019-03-15T07:03:02.691Z,6.70
2019-03-15T07:05:31.171Z,6.70
2019-03-15T07:07:59.624Z,6.70
2019-03-15T07:10:28.070Z,6.70
2019-03-15T07:12:56.721Z,6.70
2019-03-15T07:15:25.243Z,6.70
2019-03-15T07:17:53.692Z,6.70
2019-03-15T07:20:22.252Z,6.70
2019-03-15T07:22:50.700Z,6.70
2019-03-15T07:25:19.148Z,6.70
2019-03-15T07:27:48.056Z,6.60
2019-03-15T07:30:16.916Z,6.70
2019-03-15T07:32:45.440Z,6.60
2019-03-15T07:35:14.061Z,6.70
2019-03-15T07:37:45.311Z,6.70
2019-03-15T07:40:13.828Z,6.70
2019-03-15T07:42:42.407Z,6.70
2019-03-15T07:45:12.663Z,6.70
2019-03-15T07:47:41.149Z,6.70
2019-03-15T07:50:13.982Z,6.70
2019-03-15T07:55:10.460Z,6.80
2019-03-15T08:00:14.489Z,6.70
2019-03-15T08:02:43.031Z,6.80
2019-03-15T08:05:11.620Z,6.80
2019-03-15T08:07:45.306Z,6.80
2019-03-15T08:10:14.686Z,6.80
2019-03-15T08:12:43.207Z,6.90
2019-03-15T08:15:15.027Z,6.90
2019-03-15T08:17:43.512Z,6.90
2019-03-15T08:20:13.698Z,7.10
2019-03-15T08:22:42.221Z,7.00
2019-03-15T08:25:11.911Z,7.00
2019-03-15T08:27:40.451Z,7.10
2019-03-15T08:30:16.849Z,7.00
2019-03-15T08:32:45.439Z,7.10
2019-03-15T08:35:14.177Z,7.10
2019-03-15T08:37:43.175Z,7.10
2019-03-15T08:40:14.035Z,7.10
2019-03-15T08:42:42.617Z,7.10
2019-03-15T08:45:18.899Z,7.00
2019-03-15T08:47:47.425Z,7.20
2019-03-15T08:50:17.083Z,7.30
2019-03-15T08:52:45.718Z,7.40
2019-03-15T08:55:14.803Z,7.40
2019-03-15T08:57:43.318Z,7.40
2019-03-15T09:00:14.169Z,7.30
2019-03-15T09:02:42.861Z,7.40
2019-03-15T09:05:12.747Z,7.40
2019-03-15T09:07:41.223Z,7.30
2019-03-15T09:10:22.767Z,7.40
2019-03-15T09:12:45.875Z,7.40
2019-03-15T09:15:14.758Z,7.40
2019-03-15T09:17:43.283Z,7.40
2019-03-15T09:20:13.083Z,7.30
2019-03-15T09:25:19.258Z,7.40
2019-03-15T09:27:45.285Z,7.40
2019-03-15T09:30:23.043Z,7.40
2019-03-15T09:32:43.935Z,7.40
2019-03-15T09:35:12.552Z,7.40
2019-03-15T09:37:41.076Z,7.50
2019-03-15T09:40:11.862Z,7.50
2019-03-15T09:42:40.596Z,7.50
2019-03-15T09:45:11.855Z,7.50
2019-03-15T09:47:40.299Z,7.50
2019-03-15T09:50:23.120Z,7.50
2019-03-15T09:52:41.596Z,7.60
2019-03-15T09:55:11.487Z,7.70
2019-03-15T09:57:39.963Z,7.60
2019-03-15T10:00:16.391Z,7.70
2019-03-15T10:02:45.638Z,7.80
2019-03-15T10:05:14.204Z,7.90
2019-03-15T10:07:43.723Z,7.80
2019-03-15T10:10:18.258Z,8.00
2019-03-15T10:12:46.151Z,8.10
2019-03-15T10:15:15.559Z,8.20
2019-03-15T10:17:44.079Z,8.30
2019-03-15T10:20:13.639Z,8.30
2019-03-15T10:22:42.249Z,8.50
2019-03-15T10:25:15.377Z,8.50
2019-03-15T10:27:43.920Z,8.70
2019-03-15T10:30:16.949Z,8.70
2019-03-15T10:32:45.475Z,8.80
2019-03-15T10:35:14.104Z,8.80
2019-03-15T10:37:42.624Z,8.90
2019-03-15T10:40:19.297Z,8.90
2019-03-15T10:42:47.984Z,9.00
2019-03-15T10:45:16.503Z,9.10
2019-03-15T10:47:45.215Z,9.10
2019-03-15T10:50:17.573Z,9.20
2019-03-15T10:52:46.187Z,9.30
2019-03-15T10:55:15.011Z,9.30
2019-03-15T10:57:43.465Z,9.40
2019-03-15T11:00:20.084Z,9.50
2019-03-15T11:02:48.811Z,9.50
2019-03-15T11:05:17.549Z,9.50
2019-03-15T11:07:46.137Z,9.50
2019-03-15T11:10:15.046Z,9.50
2019-03-15T11:12:43.584Z,9.50
2019-03-15T11:15:13.463Z,9.40
2019-03-15T11:17:42.163Z,9.50
2019-03-15T11:20:11.995Z,9.60
2019-03-15T11:22:40.547Z,9.60
2019-03-15T11:25:10.336Z,9.70
2019-03-15T11:27:38.933Z,9.70
2019-03-15T11:30:14.293Z,9.70
2019-03-15T11:32:42.815Z,9.70
2019-03-15T11:35:12.203Z,9.70
2019-03-15T11:37:40.815Z,9.80
2019-03-15T11:40:14.617Z,9.80
2019-03-15T11:42:43.398Z,9.80
2019-03-15T11:45:13.461Z,9.80
2019-03-15T11:48:01.427Z,9.70
2019-03-15T11:50:13.749Z,9.70
2019-03-15T11:52:42.262Z,9.90
2019-03-15T11:55:11.087Z,9.80
2019-03-15T11:57:39.541Z,9.80
2019-03-15T12:00:13.667Z,9.90
2019-03-15T12:02:42.151Z,9.90
2019-03-15T12:05:10.841Z,9.90
2019-03-15T12:07:39.508Z,9.90
2019-03-15T12:10:10.968Z,9.90
2019-03-15T12:12:39.448Z,10.00
2019-03-15T12:15:10.679Z,10.00
2019-03-15T12:17:39.258Z,10.00
2019-03-15T12:20:11.790Z,10.00
2019-03-15T12:22:40.314Z,10.10
2019-03-15T12:25:10.857Z,10.10
2019-03-15T12:27:39.407Z,10.10
2019-03-15T12:30:18.364Z,10.10
2019-03-15T12:32:46.961Z,10.20
2019-03-15T12:35:16.431Z,10.20
2019-03-15T12:37:44.955Z,10.20
2019-03-15T12:40:18.130Z,10.20
2019-03-15T12:42:46.837Z,10.20
2019-03-15T12:45:15.827Z,10.20
2019-03-15T12:47:44.363Z,10.20
2019-03-15T12:50:16.515Z,10.30
2019-03-15T12:52:48.965Z,10.40
2019-03-15T12:55:15.711Z,10.40
2019-03-15T12:57:44.272Z,10.30
2019-03-15T13:00:15.353Z,10.40
2019-03-15T13:02:43.939Z,10.40
2019-03-15T13:05:12.551Z,10.40
2019-03-15T13:07:41.012Z,10.40
2019-03-15T13:10:14.294Z,10.30
2019-03-15T13:12:42.755Z,10.40
2019-03-15T13:15:13.572Z,10.40
2019-03-15T13:17:42.099Z,10.40
2019-03-15T13:20:13.098Z,10.50
2019-03-15T13:25:11.066Z,10.50
2019-03-15T13:27:39.607Z,10.50
2019-03-15T13:30:13.108Z,10.60
2019-03-15T13:35:10.528Z,10.70
2019-03-15T13:37:42.428Z,10.70
2019-03-15T13:40:19.365Z,10.70
2019-03-15T13:42:47.952Z,10.70
2019-03-15T13:45:17.149Z,10.70
2019-03-15T13:47:45.719Z,10.70
2019-03-15T13:50:19.231Z,10.70
2019-03-15T13:52:47.785Z,10.80
2019-03-15T13:55:16.447Z,10.80
2019-03-15T13:57:44.904Z,10.90
2019-03-15T14:00:15.991Z,10.90
2019-03-15T14:02:44.514Z,10.90
2019-03-15T14:05:13.195Z,10.90
2019-03-15T14:07:41.673Z,10.80
2019-03-15T14:10:14.450Z,10.80
2019-03-15T14:12:42.995Z,10.90
2019-03-15T14:15:13.660Z,10.80
2019-03-15T14:17:42.632Z,10.70
2019-03-15T14:20:12.023Z,10.80
2019-03-15T14:22:40.481Z,10.80
2019-03-15T14:25:14.432Z,10.80
2019-03-15T14:27:43.003Z,10.70
2019-03-15T14:30:14.707Z,10.70
2019-03-15T14:32:43.233Z,10.80
2019-03-15T14:35:11.944Z,10.70
2019-03-15T14:37:40.390Z,10.70
2019-03-15T14:40:13.111Z,10.70
2019-03-15T14:45:12.705Z,10.70
2019-03-15T14:47:41.427Z,10.70
2019-03-15T14:50:11.892Z,10.70
2019-03-15T14:52:40.449Z,10.80
2019-03-15T14:55:11.299Z,10.90
2019-03-15T14:57:51.375Z,10.90
2019-03-15T15:00:19.634Z,10.90
2019-03-15T15:02:48.358Z,10.90
2019-03-15T15:05:16.878Z,10.90
2019-03-15T15:07:45.394Z,10.90
2019-03-15T15:10:18.537Z,10.90
2019-03-15T15:12:47.092Z,10.90
2019-03-15T15:15:21.994Z,10.90
2019-03-15T15:17:50.516Z,10.90
2019-03-15T15:20:19.168Z,10.80
2019-03-15T15:22:47.622Z,10.80
2019-03-15T15:25:17.235Z,10.80
2019-03-15T15:27:45.691Z,10.80
2019-03-15T15:30:15.607Z,10.80
2019-03-15T15:32:44.056Z,10.80
2019-03-15T15:35:13.457Z,10.80
2019-03-15T15:37:42.071Z,10.80
2019-03-15T15:40:14.743Z,10.70
2019-03-15T15:42:43.376Z,10.70
2019-03-15T15:45:12.755Z,10.70
2019-03-15T15:47:41.397Z,10.60
2019-03-15T15:50:12.415Z,10.60
2019-03-15T15:52:40.945Z,10.60
2019-03-15T15:55:13.884Z,10.50
2019-03-15T15:57:42.483Z,10.50
2019-03-15T16:00:18.098Z,10.50
2019-03-15T16:02:46.720Z,10.50
2019-03-15T16:05:15.441Z,10.50
2019-03-15T16:07:43.994Z,10.50
2019-03-15T16:10:17.835Z,10.50
2019-03-15T16:12:46.286Z,10.50
2019-03-15T16:15:18.827Z,10.50
2019-03-15T16:17:47.467Z,10.40
2019-03-15T16:20:15.923Z,10.40
2019-03-15T16:22:44.416Z,10.50
2019-03-15T16:25:13.388Z,10.40
2019-03-15T16:27:41.985Z,10.50
2019-03-15T16:30:15.269Z,10.50
2019-03-15T16:32:43.870Z,10.50
2019-03-15T16:35:13.288Z,10.50
2019-03-15T16:37:42.254Z,10.50
2019-03-15T16:40:13.215Z,10.50
2019-03-15T16:45:32.725Z,10.50
2019-03-15T16:48:01.261Z,10.50
2019-03-15T16:50:29.783Z,10.50
2019-03-15T16:52:58.251Z,10.50
2019-03-15T16:55:26.703Z,10.50
2019-03-15T16:57:55.173Z,10.50
2019-03-15T17:00:23.647Z,10.50
2019-03-15T17:02:52.099Z,10.50
2019-03-15T17:05:20.575Z,10.50
2019-03-15T17:07:49.100Z,10.50
2019-03-15T17:10:18.826Z,10.50
2019-03-15T17:12:47.424Z,10.50
2019-03-15T17:15:24.483Z,10.50
2019-03-15T17:17:52.933Z,10.50
2019-03-15T17:20:21.451Z,10.50
2019-03-15T17:22:50.078Z,10.40
2019-03-15T17:25:18.672Z,10.50
2019-03-15T17:27:47.312Z,10.50
2019-03-15T17:30:18.985Z,10.50
2019-03-15T17:32:47.581Z,10.50
2019-03-15T17:35:17.886Z,10.50
2019-03-15T17:37:46.530Z,10.50
2019-03-15T17:40:17.315Z,10.50
2019-03-15T17:42:45.847Z,10.40
2019-03-15T17:45:14.390Z,10.40
2019-03-15T17:47:42.924Z,10.40
2019-03-15T17:50:24.896Z,10.40
2019-03-15T17:52:53.426Z,10.40
2019-03-15T17:55:21.947Z,10.40
2019-03-15T17:57:50.443Z,10.30
2019-03-15T18:00:32.319Z,10.40
2019-03-15T18:03:00.790Z,10.40
2019-03-15T18:05:29.243Z,10.40
2019-03-15T18:07:57.769Z,10.30
2019-03-15T18:10:26.264Z,10.30
2019-03-15T18:12:54.799Z,10.30
2019-03-15T18:15:23.280Z,10.40
2019-03-15T18:17:51.724Z,10.30
2019-03-15T18:20:20.267Z,10.30
2019-03-15T18:22:48.716Z,10.30
2019-03-15T18:25:17.212Z,10.30
2019-03-15T18:27:46.176Z,10.30
2019-03-15T18:30:15.945Z,10.40
2019-03-15T18:32:44.898Z,10.40
2019-03-15T18:35:13.832Z,10.30
2019-03-15T18:37:42.450Z,10.40
2019-03-15T18:40:13.728Z,10.40
2019-03-15T18:42:42.495Z,10.30
2019-03-15T18:45:12.731Z,10.40
2019-03-15T18:47:41.440Z,10.40
2019-03-15T18:50:24.810Z,10.40
2019-03-15T18:52:53.431Z,10.40
2019-03-15T18:55:21.957Z,10.40
2019-03-15T18:57:50.637Z,10.40
2019-03-15T19:00:25.757Z,10.40
2019-03-15T19:02:54.208Z,10.30
2019-03-15T19:05:22.754Z,10.30
2019-03-15T19:07:51.203Z,10.30
2019-03-15T19:10:20.017Z,10.30
2019-03-15T19:12:48.610Z,10.30
2019-03-15T19:15:21.008Z,10.30
2019-03-15T19:17:49.598Z,10.40
2019-03-15T19:20:19.644Z,10.40
2019-03-15T19:22:48.119Z,10.40
2019-03-15T19:25:16.706Z,10.30
2019-03-15T19:27:45.324Z,10.40
2019-03-15T19:30:18.317Z,10.30
2019-03-15T19:32:46.941Z,10.20
2019-03-15T19:35:15.531Z,10.20
2019-03-15T19:37:43.983Z,10.30
2019-03-15T19:40:17.277Z,10.30
2019-03-15T19:42:45.981Z,10.40
2019-03-15T19:45:15.351Z,10.40
2019-03-15T19:47:43.929Z,10.40
2019-03-15T19:50:22.606Z,10.30
2019-03-15T19:52:51.133Z,10.30
2019-03-15T19:55:19.693Z,10.30
2019-03-15T19:57:48.151Z,10.40
2019-03-15T20:00:23.980Z,10.40
2019-03-15T20:02:52.455Z,10.30
2019-03-15T20:05:21.022Z,10.40
2019-03-15T20:07:49.672Z,10.40
2019-03-15T20:10:18.239Z,10.40
2019-03-15T20:12:46.792Z,10.40
2019-03-15T20:15:16.607Z,10.40
2019-03-15T20:17:45.332Z,10.40
2019-03-15T20:20:17.588Z,10.40
2019-03-15T20:22:46.102Z,10.50
2019-03-15T20:25:15.832Z,10.50
2019-03-15T20:27:44.291Z,10.50
2019-03-15T20:30:26.022Z,10.50
2019-03-15T20:32:51.251Z,10.40
2019-03-15T20:35:19.974Z,10.40
2019-03-15T20:37:48.496Z,10.40
2019-03-15T20:40:16.991Z,10.50
2019-03-15T20:42:45.510Z,10.40
2019-03-15T20:45:22.298Z,10.40
2019-03-15T20:48:10.089Z,10.50
2019-03-15T20:50:46.549Z,10.50
2019-03-15T20:53:12.731Z,10.40
2019-03-15T20:55:38.977Z,10.50
2019-03-15T20:58:07.671Z,10.50
2019-03-15T21:00:36.463Z,10.50
2019-03-15T21:03:05.207Z,10.60
2019-03-15T21:05:33.665Z,10.60
2019-03-15T21:08:02.285Z,10.50
2019-03-15T21:10:30.737Z,10.50
2019-03-15T21:12:59.209Z,10.50
2019-03-15T21:15:27.755Z,10.60
2019-03-15T21:17:56.211Z,10.60
2019-03-15T21:20:24.800Z,10.60
2019-03-15T21:22:53.319Z,10.60
2019-03-15T21:25:21.879Z,10.60
2019-03-15T21:27:54.125Z,10.60
2019-03-15T21:30:25.545Z,10.60
2019-03-15T21:32:54.159Z,10.70
2019-03-15T21:35:22.682Z,10.70
2019-03-15T21:37:51.377Z,10.70
2019-03-15T21:40:20.852Z,10.70
2019-03-15T21:42:49.375Z,10.60
2019-03-15T21:45:17.855Z,10.60
2019-03-15T21:47:46.324Z,10.60
2019-03-15T21:50:16.183Z,10.60
2019-03-15T21:52:44.732Z,10.60
2019-03-15T21:55:13.328Z,10.60
2019-03-15T21:57:41.809Z,11.00
2019-03-15T22:00:15.219Z,10.70
2019-03-15T22:02:43.673Z,10.80
2019-03-15T22:05:12.216Z,10.70
2019-03-15T22:07:40.664Z,10.70
2019-03-15T22:10:13.379Z,10.80
2019-03-15T22:15:11.095Z,10.80
2019-03-15T22:17:39.763Z,10.60
2019-03-15T22:20:15.707Z,10.70
2019-03-15T22:22:44.379Z,10.70
2019-03-15T22:25:13.072Z,10.60
2019-03-15T22:27:41.516Z,10.70
2019-03-15T22:30:14.299Z,10.70
2019-03-15T22:32:43.008Z,10.70
2019-03-15T22:35:11.632Z,10.70
2019-03-15T22:37:40.469Z,10.70
2019-03-15T22:40:12.787Z,10.70
2019-03-15T22:42:41.376Z,10.70
2019-03-15T22:45:13.798Z,10.60
2019-03-15T22:47:42.320Z,10.60
2019-03-15T22:50:14.509Z,10.50
2019-03-15T22:52:42.958Z,10.50
2019-03-15T22:55:12.055Z,10.50
2019-03-15T22:57:40.991Z,10.50
2019-03-15T23:00:12.758Z,10.50
2019-03-15T23:02:41.365Z,10.40
2019-03-15T23:05:10.299Z,10.40
2019-03-15T23:07:38.819Z,10.40
2019-03-15T23:10:09.843Z,10.40
2019-03-15T23:12:38.536Z,10.30
2019-03-15T23:15:08.830Z,10.30
2019-03-15T23:17:37.298Z,10.30
2019-03-15T23:20:10.925Z,10.30
2019-03-15T23:22:39.676Z,10.30
2019-03-15T23:25:08.568Z,10.30
2019-03-15T23:27:37.092Z,10.20
2019-03-15T23:30:16.399Z,10.30
2019-03-15T23:32:45.095Z,10.20
2019-03-15T23:35:13.836Z,10.20
2019-03-15T23:37:42.283Z,10.20
2019-03-15T23:40:15.044Z,10.20
2019-03-15T23:42:43.722Z,10.20
2019-03-15T23:45:12.583Z,10.20
2019-03-15T23:47:41.041Z,10.20
2019-03-15T23:50:13.887Z,10.20
2019-03-15T23:52:42.403Z,10.20
2019-03-15T23:55:11.106Z,10.20
2019-03-15T23:57:39.651Z,10.20
